createdAt,value
2022-10-19T00:01:24.871Z,18.21
2022-10-19T00:03:54.749Z,17.92
2022-10-19T00:06:22.709Z,17.04
2022-10-19T00:08:50.809Z,17.23
2022-10-19T00:11:18.884Z,17.01
2022-10-19T00:13:47.038Z,17.02
2022-10-19T00:16:18.071Z,16.62
2022-10-19T00:18:46.436Z,16.33
2022-10-19T00:21:19.876Z,16.08
2022-10-19T00:23:49.236Z,15.88
2022-10-19T00:26:19.574Z,15.72
2022-10-19T00:28:50.072Z,15.57
2022-10-19T00:31:19.131Z,15.10
2022-10-19T00:33:48.268Z,14.39
2022-10-19T00:36:27.667Z,14.52
2022-10-19T00:38:57.361Z,14.38
2022-10-19T00:41:29.801Z,14.26
2022-10-19T00:44:27.856Z,13.72
2022-10-19T00:47:00.750Z,13.32
2022-10-19T00:49:34.275Z,13.63
2022-10-19T00:52:18.553Z,13.64
2022-10-19T00:54:48.134Z,13.43
2022-10-19T00:57:16.558Z,13.29
2022-10-19T00:59:47.484Z,13.17
2022-10-19T01:02:16.136Z,12.95
2022-10-19T01:04:50.360Z,12.81
2022-10-19T01:07:21.786Z,12.35
2022-10-19T01:09:49.918Z,12.23
2022-10-19T01:12:30.028Z,12.31
2022-10-19T01:15:30.544Z,12.31
2022-10-19T01:18:30.200Z,12.15
2022-10-19T01:21:12.979Z,11.97
2022-10-19T01:24:12.698Z,12.08
2022-10-19T01:26:52.583Z,11.97
2022-10-19T01:29:26.759Z,11.71
2022-10-19T01:32:12.496Z,11.41
2022-10-19T01:34:56.089Z,11.20
2022-10-19T01:37:32.312Z,11.00
2022-10-19T01:40:06.574Z,10.52
2022-10-19T01:42:45.626Z,10.49
2022-10-19T01:45:19.425Z,10.47
2022-10-19T01:47:54.266Z,10.19
2022-10-19T01:50:51.066Z,10.09
2022-10-19T01:53:25.075Z,10.29
2022-10-19T01:55:53.311Z,10.40
2022-10-19T01:58:29.775Z,10.11
2022-10-19T02:01:04.505Z,9.90
2022-10-19T02:03:34.395Z,9.60
2022-10-19T02:06:08.762Z,9.55
2022-10-19T02:08:50.385Z,9.71
2022-10-19T02:11:19.646Z,9.70
2022-10-19T02:13:57.535Z,9.68
2022-10-19T02:16:33.312Z,9.52
2022-10-19T02:19:03.961Z,9.35
2022-10-19T02:21:33.162Z,9.29
2022-10-19T02:24:01.596Z,9.26
2022-10-19T02:26:29.692Z,9.23
2022-10-19T02:28:58.249Z,9.12
2022-10-19T02:31:28.880Z,9.04
2022-10-19T02:33:57.081Z,9.01
2022-10-19T02:36:25.239Z,8.55
2022-10-19T02:38:53.419Z,8.23
2022-10-19T02:41:36.845Z,8.14
2022-10-19T02:44:19.944Z,8.16
2022-10-19T02:46:55.237Z,8.11
2022-10-19T02:49:23.618Z,8.13
2022-10-19T02:52:01.363Z,8.00
2022-10-19T02:54:30.011Z,8.04
2022-10-19T02:56:58.387Z,8.22
2022-10-19T02:59:26.765Z,8.19
2022-10-19T03:01:54.845Z,8.28
2022-10-19T03:04:23.008Z,8.26
2022-10-19T03:06:51.059Z,8.03
2022-10-19T03:09:19.204Z,7.25
2022-10-19T03:11:50.767Z,7.74
2022-10-19T03:14:18.792Z,7.86
2022-10-19T03:16:49.436Z,7.54
2022-10-19T03:19:17.581Z,7.66
2022-10-19T03:21:45.576Z,7.65
2022-10-19T03:24:18.598Z,6.87
2022-10-19T03:26:46.760Z,6.60
2022-10-19T03:29:14.832Z,6.63
2022-10-19T03:31:45.723Z,6.76
2022-10-19T03:34:16.568Z,6.51
2022-10-19T03:36:44.789Z,6.50
2022-10-19T03:39:15.095Z,6.45
2022-10-19T03:41:43.285Z,6.42
2022-10-19T03:44:13.665Z,6.43
2022-10-19T03:46:41.733Z,6.44
2022-10-19T03:49:12.911Z,6.52
2022-10-19T03:51:40.935Z,6.58
2022-10-19T03:54:14.660Z,6.44
2022-10-19T03:56:43.352Z,6.32
2022-10-19T03:59:18.657Z,6.26
2022-10-19T04:01:47.451Z,6.17
2022-10-19T04:04:18.221Z,6.05
2022-10-19T04:06:48.890Z,5.93
2022-10-19T04:09:19.485Z,5.98
2022-10-19T04:11:48.079Z,6.10
2022-10-19T04:14:26.838Z,6.35
2022-10-19T04:17:05.364Z,6.35
2022-10-19T04:19:34.221Z,6.31
2022-10-19T04:22:02.264Z,6.27
2022-10-19T04:24:32.658Z,6.27
2022-10-19T04:27:00.794Z,6.24
2022-10-19T04:29:30.172Z,6.11
2022-10-19T04:31:59.736Z,6.08
2022-10-19T04:34:28.330Z,5.77
2022-10-19T04:36:56.357Z,5.03
2022-10-19T04:39:24.350Z,5.21
2022-10-19T04:41:52.451Z,5.35
2022-10-19T04:44:20.746Z,5.26
2022-10-19T04:46:48.833Z,5.12
2022-10-19T04:49:19.473Z,5.13
2022-10-19T04:51:48.440Z,5.25
2022-10-19T04:54:16.529Z,5.35
2022-10-19T04:56:44.581Z,5.39
2022-10-19T04:59:12.627Z,5.39
2022-10-19T05:01:44.775Z,5.35
2022-10-19T05:04:15.472Z,5.24
2022-10-19T05:06:46.368Z,5.32
2022-10-19T05:09:16.804Z,5.23
2022-10-19T05:11:44.909Z,5.39
2022-10-19T05:14:12.973Z,5.40
2022-10-19T05:16:40.983Z,5.38
2022-10-19T05:19:15.326Z,5.30
2022-10-19T05:21:45.665Z,5.23
2022-10-19T05:24:13.970Z,5.21
2022-10-19T05:26:42.024Z,5.04
2022-10-19T05:29:14.211Z,5.00
2022-10-19T05:31:42.460Z,4.98
2022-10-19T05:34:10.531Z,4.75
2022-10-19T05:36:42.933Z,4.34
2022-10-19T05:39:16.178Z,4.39
2022-10-19T05:41:45.791Z,4.42
2022-10-19T05:44:24.229Z,4.56
2022-10-19T05:46:52.924Z,4.62
2022-10-19T05:49:22.965Z,4.51
2022-10-19T05:51:51.337Z,4.27
2022-10-19T05:54:21.762Z,4.30
2022-10-19T05:56:54.163Z,4.32
2022-10-19T05:59:24.172Z,4.40
2022-10-19T06:01:54.525Z,4.35
2022-10-19T06:04:25.233Z,4.47
2022-10-19T06:06:53.337Z,4.42
2022-10-19T06:09:24.265Z,4.38
2022-10-19T06:11:52.247Z,4.43
2022-10-19T06:14:20.333Z,4.36
2022-10-19T06:16:49.313Z,4.24
2022-10-19T06:19:17.336Z,4.29
2022-10-19T06:21:46.224Z,4.24
2022-10-19T06:24:14.366Z,3.73
2022-10-19T06:26:42.447Z,3.42
2022-10-19T06:29:10.969Z,3.59
2022-10-19T06:31:39.104Z,3.52
2022-10-19T06:34:07.551Z,3.47
2022-10-19T06:36:36.113Z,3.51
2022-10-19T06:39:07.045Z,3.33
2022-10-19T06:41:35.093Z,3.30
2022-10-19T06:44:03.130Z,3.31
2022-10-19T06:46:31.191Z,3.30
2022-10-19T06:49:01.682Z,3.38
2022-10-19T06:51:33.306Z,3.54
2022-10-19T06:54:01.449Z,3.56
2022-10-19T06:56:29.580Z,3.59
2022-10-19T06:58:58.594Z,3.44
2022-10-19T07:01:26.953Z,3.41
2022-10-19T07:03:55.260Z,3.46
2022-10-19T07:06:24.053Z,3.53
2022-10-19T07:08:53.773Z,3.56
2022-10-19T07:11:24.780Z,3.57
2022-10-19T07:13:53.733Z,3.48
2022-10-19T07:16:22.321Z,3.53
2022-10-19T07:18:54.346Z,3.38
2022-10-19T07:21:25.046Z,3.01
2022-10-19T07:23:53.108Z,2.95
2022-10-19T07:26:27.032Z,2.90
2022-10-19T07:28:56.517Z,2.94
2022-10-19T07:31:29.125Z,3.03
2022-10-19T07:34:04.697Z,2.96
2022-10-19T07:36:34.595Z,3.05
2022-10-19T07:39:04.135Z,3.07
2022-10-19T07:41:32.112Z,2.96
2022-10-19T07:44:00.162Z,2.87
2022-10-19T07:46:33.834Z,2.54
2022-10-19T07:49:04.441Z,2.53
2022-10-19T07:51:32.554Z,2.44
2022-10-19T07:54:00.741Z,2.42
2022-10-19T07:56:30.319Z,2.48
2022-10-19T07:59:00.236Z,2.50
2022-10-19T08:01:34.110Z,2.60
2022-10-19T08:06:50.463Z,2.82
2022-10-19T08:09:47.104Z,2.78
2022-10-19T08:12:14.821Z,2.67
2022-10-19T08:14:43.378Z,2.53
2022-10-19T08:17:14.567Z,2.53
2022-10-19T08:19:42.570Z,2.54
2022-10-19T08:22:11.248Z,2.50
2022-10-19T08:24:39.271Z,2.51
2022-10-19T08:27:07.440Z,2.32
2022-10-19T08:29:35.476Z,2.14
2022-10-19T08:32:03.486Z,1.83
2022-10-19T08:34:31.560Z,1.91
2022-10-19T08:37:14.655Z,1.91
2022-10-19T08:39:55.941Z,2.35
2022-10-19T08:42:39.141Z,2.54
2022-10-19T08:45:37.751Z,2.58
2022-10-19T08:48:18.993Z,2.53
2022-10-19T08:50:47.926Z,2.43
2022-10-19T08:53:38.777Z,2.30
2022-10-19T08:56:45.806Z,2.25
2022-10-19T08:59:33.093Z,2.12
2022-10-19T09:02:24.910Z,2.19
2022-10-19T09:05:04.054Z,2.31
2022-10-19T09:07:39.106Z,2.38
2022-10-19T09:10:15.925Z,2.33
2022-10-19T09:12:53.936Z,1.77
2022-10-19T09:15:41.305Z,1.52
2022-10-19T09:18:25.056Z,1.60
2022-10-19T09:21:45.964Z,1.71
2022-10-19T09:24:43.062Z,1.60
2022-10-19T09:27:24.532Z,1.65
2022-10-19T09:29:58.265Z,1.53
2022-10-19T09:32:36.888Z,1.50
2022-10-19T09:35:27.206Z,1.59
2022-10-19T09:37:56.569Z,1.66
2022-10-19T09:40:29.576Z,1.75
2022-10-19T09:42:57.904Z,1.87
2022-10-19T09:45:48.481Z,1.80
2022-10-19T09:48:28.963Z,1.76
2022-10-19T09:51:04.003Z,1.48
2022-10-19T09:53:32.097Z,1.29
2022-10-19T09:56:06.344Z,1.49
2022-10-19T09:58:35.402Z,1.46
2022-10-19T10:01:04.370Z,1.52
2022-10-19T10:03:33.808Z,1.60
2022-10-19T10:06:15.012Z,1.68
2022-10-19T10:08:54.818Z,1.64
2022-10-19T10:11:29.764Z,1.71
2022-10-19T10:14:00.419Z,1.73
2022-10-19T10:16:30.999Z,1.71
2022-10-19T10:19:12.734Z,1.68
2022-10-19T10:21:52.617Z,1.56
2022-10-19T10:24:24.967Z,1.61
2022-10-19T10:30:21.511Z,1.46
2022-10-19T10:32:53.583Z,1.40
2022-10-19T10:35:26.824Z,1.46
2022-10-19T10:38:17.277Z,1.42
2022-10-19T10:41:16.270Z,1.19
2022-10-19T10:43:57.579Z,1.17
2022-10-19T10:46:30.596Z,1.11
2022-10-19T10:49:07.706Z,1.06
2022-10-19T10:51:39.254Z,1.08
2022-10-19T10:54:11.065Z,1.19
2022-10-19T10:56:39.364Z,1.20
2022-10-19T10:59:25.062Z,1.26
2022-10-19T11:02:16.780Z,1.28
2022-10-19T11:04:52.438Z,1.28
2022-10-19T11:07:26.770Z,1.10
2022-10-19T11:10:08.478Z,1.04
2022-10-19T11:12:43.441Z,1.07
2022-10-19T11:15:21.009Z,1.14
2022-10-19T11:18:09.150Z,1.35
2022-10-19T11:20:43.440Z,1.32
2022-10-19T11:23:16.769Z,1.24
2022-10-19T11:25:55.756Z,0.98
2022-10-19T11:28:33.712Z,0.71
2022-10-19T11:31:33.795Z,0.59
2022-10-19T11:34:16.191Z,0.40
2022-10-19T11:37:22.598Z,0.21
2022-10-19T11:39:56.463Z,0.33
2022-10-19T11:42:24.457Z,0.41
2022-10-19T11:45:04.995Z,0.75
2022-10-19T11:48:06.857Z,0.99
2022-10-19T11:50:54.162Z,0.95
2022-10-19T11:53:42.905Z,1.04
2022-10-19T11:56:35.052Z,0.76
2022-10-19T11:59:20.483Z,0.77
2022-10-19T12:01:48.446Z,0.83
2022-10-19T12:04:33.307Z,0.87
2022-10-19T12:07:18.967Z,1.24
2022-10-19T12:09:52.824Z,1.30
2022-10-19T12:12:26.272Z,1.15
2022-10-19T12:15:13.586Z,1.02
2022-10-19T12:17:47.806Z,0.86
2022-10-19T12:20:39.732Z,0.59
2022-10-19T12:23:22.761Z,0.78
2022-10-19T12:25:51.686Z,1.18
2022-10-19T12:28:28.423Z,1.34
2022-10-19T12:30:57.552Z,0.90
2022-10-19T12:33:37.926Z,0.69
2022-10-19T12:36:31.253Z,0.82
2022-10-19T12:39:49.745Z,0.89
2022-10-19T12:42:40.888Z,0.69
2022-10-19T12:45:29.832Z,0.54
2022-10-19T12:48:10.089Z,0.48
2022-10-19T12:50:50.107Z,0.59
2022-10-19T12:56:16.105Z,0.60
2022-10-19T12:58:56.164Z,0.43
2022-10-19T13:01:29.029Z,0.28
2022-10-19T13:04:16.647Z,0.57
2022-10-19T13:06:49.944Z,0.80
2022-10-19T13:09:23.519Z,1.07
2022-10-19T13:12:19.594Z,0.83
2022-10-19T13:15:04.567Z,0.58
2022-10-19T13:17:35.573Z,0.63
2022-10-19T13:20:15.654Z,0.67
2022-10-19T13:22:44.823Z,0.57
2022-10-19T13:25:23.960Z,0.54
2022-10-19T13:27:53.504Z,0.63
2022-10-19T13:31:04.840Z,0.73
2022-10-19T13:33:45.869Z,0.95
2022-10-19T13:36:14.301Z,1.09
2022-10-19T13:38:52.402Z,0.95
2022-10-19T13:41:35.707Z,0.57
2022-10-19T13:44:19.113Z,0.32
2022-10-19T13:47:26.341Z,0.32
2022-10-19T13:50:05.781Z,0.40
2022-10-19T13:52:34.004Z,0.43
2022-10-19T13:55:02.126Z,0.51
2022-10-19T13:57:46.145Z,0.61
2022-10-19T14:00:26.006Z,0.73
2022-10-19T14:03:01.494Z,0.52
2022-10-19T14:05:57.476Z,0.29
2022-10-19T14:08:45.119Z,0.24
2022-10-19T14:11:16.858Z,0.17
2022-10-19T14:13:45.510Z,0.24
2022-10-19T14:16:23.731Z,0.36
2022-10-19T14:18:58.462Z,0.29
2022-10-19T14:21:35.395Z,0.39
2022-10-19T14:24:04.095Z,0.37
2022-10-19T14:26:32.237Z,0.11
2022-10-19T14:29:01.316Z,-0.03
2022-10-19T14:31:37.124Z,0.17
2022-10-19T14:34:08.793Z,0.35
2022-10-19T14:36:44.709Z,0.43
2022-10-19T14:39:34.997Z,0.72
2022-10-19T14:42:10.657Z,1.20
2022-10-19T14:44:45.955Z,1.12
2022-10-19T14:47:26.770Z,1.18
2022-10-19T14:49:54.884Z,1.21
2022-10-19T14:52:29.118Z,1.26
2022-10-19T14:54:57.867Z,1.21
2022-10-19T14:57:35.931Z,0.84
2022-10-19T15:00:07.473Z,0.97
2022-10-19T15:02:46.005Z,0.91
2022-10-19T15:05:22.686Z,0.68
2022-10-19T15:07:51.504Z,0.68
2022-10-19T15:10:28.632Z,1.01
2022-10-19T15:13:03.862Z,1.37
2022-10-19T15:15:34.642Z,1.38
2022-10-19T15:18:04.114Z,1.38
2022-10-19T15:20:49.015Z,1.48
2022-10-19T15:23:40.763Z,1.54
2022-10-19T15:26:22.143Z,1.45
2022-10-19T15:28:51.049Z,1.37
2022-10-19T15:31:22.069Z,1.57
2022-10-19T15:33:52.450Z,1.69
2022-10-19T15:36:22.396Z,1.85
2022-10-19T15:39:11.369Z,1.83
2022-10-19T15:41:52.772Z,2.02
2022-10-19T15:44:43.880Z,2.13
2022-10-19T15:47:17.321Z,1.89
2022-10-19T15:49:45.335Z,2.28
2022-10-19T15:52:30.691Z,2.67
2022-10-19T15:55:00.442Z,2.89
2022-10-19T15:57:35.554Z,3.30
2022-10-19T16:00:14.615Z,3.62
2022-10-19T16:02:42.739Z,3.82
2022-10-19T16:05:10.997Z,3.81
2022-10-19T16:07:40.907Z,3.92
2022-10-19T16:10:15.654Z,3.83
2022-10-19T16:12:46.051Z,4.00
2022-10-19T16:15:18.581Z,4.06
2022-10-19T16:17:53.838Z,4.05
2022-10-19T16:20:22.967Z,4.31
2022-10-19T16:22:51.660Z,4.44
2022-10-19T16:25:23.169Z,4.65
2022-10-19T16:27:51.271Z,5.08
2022-10-19T16:30:19.565Z,5.38
2022-10-19T16:32:53.081Z,5.61
2022-10-19T16:35:22.140Z,5.67
2022-10-19T16:37:53.092Z,6.00
2022-10-19T16:40:21.155Z,5.87
2022-10-19T16:42:51.948Z,5.98
2022-10-19T16:45:22.295Z,6.05
2022-10-19T16:47:53.262Z,5.95
2022-10-19T16:50:21.711Z,6.12
2022-10-19T16:53:03.941Z,6.10
2022-10-19T16:55:32.012Z,6.06
2022-10-19T16:58:00.013Z,6.31
2022-10-19T17:00:28.073Z,6.41
2022-10-19T17:02:56.779Z,6.35
2022-10-19T17:05:24.929Z,6.79
2022-10-19T17:07:55.487Z,7.10
2022-10-19T17:10:23.585Z,6.95
2022-10-19T17:12:51.640Z,6.94
2022-10-19T17:15:47.685Z,6.85
2022-10-19T17:18:07.860Z,6.93
2022-10-19T17:20:36.012Z,7.23
2022-10-19T17:23:04.030Z,7.01
2022-10-19T17:25:34.640Z,7.32
2022-10-19T17:28:04.680Z,7.56
2022-10-19T17:30:35.163Z,7.31
2022-10-19T17:33:03.227Z,7.42
2022-10-19T17:35:35.249Z,7.48
2022-10-19T17:38:05.583Z,7.94
2022-10-19T17:40:34.339Z,8.01
2022-10-19T17:43:04.426Z,8.32
2022-10-19T17:45:35.365Z,8.30
2022-10-19T17:48:03.530Z,8.55
2022-10-19T17:50:31.680Z,8.75
2022-10-19T17:52:59.739Z,8.70
2022-10-19T17:55:27.823Z,9.65
2022-10-19T17:57:59.175Z,9.82
2022-10-19T18:00:27.208Z,9.81
2022-10-19T18:02:55.258Z,9.70
2022-10-19T18:05:23.361Z,10.10
2022-10-19T18:07:56.446Z,10.03
2022-10-19T18:10:24.595Z,10.21
2022-10-19T18:12:52.598Z,10.68
2022-10-19T18:15:20.740Z,10.74
2022-10-19T18:17:48.835Z,11.30
2022-10-19T18:20:17.131Z,11.30
2022-10-19T18:22:45.176Z,11.33
2022-10-19T18:25:13.335Z,11.51
2022-10-19T18:27:44.012Z,11.00
2022-10-19T18:30:12.409Z,11.31
2022-10-19T18:32:42.841Z,11.60
2022-10-19T18:35:10.907Z,11.92
2022-10-19T18:37:38.942Z,12.30
2022-10-19T18:40:07.657Z,12.38
2022-10-19T18:42:35.929Z,12.76
2022-10-19T18:45:04.816Z,12.75
2022-10-19T18:47:33.112Z,12.55
2022-10-19T18:50:01.188Z,12.56
2022-10-19T18:52:29.198Z,13.42
2022-10-19T18:54:58.152Z,13.06
2022-10-19T18:57:30.837Z,13.02
2022-10-19T18:59:59.697Z,13.21
2022-10-19T19:02:42.387Z,13.33
2022-10-19T19:05:20.405Z,14.00
2022-10-19T19:07:52.253Z,13.91
2022-10-19T19:10:21.402Z,13.68
2022-10-19T19:12:53.504Z,14.06
2022-10-19T19:15:23.374Z,13.53
2022-10-19T19:17:55.631Z,13.47
2022-10-19T19:20:24.638Z,14.52
2022-10-19T19:22:56.475Z,14.84
2022-10-19T19:25:25.715Z,15.61
2022-10-19T19:27:59.188Z,15.97
2022-10-19T19:30:28.354Z,15.74
2022-10-19T19:33:02.458Z,16.26
2022-10-19T19:35:30.331Z,16.03
2022-10-19T19:37:58.794Z,15.49
2022-10-19T19:40:28.864Z,16.00
2022-10-19T19:42:57.763Z,16.12
2022-10-19T19:45:33.112Z,16.34
2022-10-19T19:48:06.012Z,16.98
2022-10-19T19:50:48.374Z,16.01
2022-10-19T19:53:19.404Z,15.86
2022-10-19T19:55:53.667Z,17.21
2022-10-19T19:58:22.754Z,17.44
2022-10-19T20:00:55.032Z,17.12
2022-10-19T20:03:24.114Z,17.86
2022-10-19T20:05:59.550Z,17.06
2022-10-19T20:08:28.473Z,18.44
2022-10-19T20:11:06.804Z,17.38
2022-10-19T20:13:37.602Z,17.84
2022-10-19T20:16:15.217Z,19.07
2022-10-19T20:18:52.033Z,19.11
2022-10-19T20:21:21.485Z,19.97
2022-10-19T20:23:50.971Z,19.77
2022-10-19T20:26:26.085Z,19.19
2022-10-19T20:29:00.280Z,19.49
2022-10-19T20:31:32.566Z,19.58
2022-10-19T20:34:02.282Z,17.92
2022-10-19T20:36:33.382Z,17.93
2022-10-19T20:39:02.586Z,19.13
2022-10-19T20:41:34.353Z,19.42
2022-10-19T20:44:06.414Z,19.35
2022-10-19T20:46:38.783Z,19.22
2022-10-19T20:49:07.917Z,20.57
2022-10-19T20:51:40.921Z,20.63
2022-10-19T20:54:12.817Z,21.07
2022-10-19T20:56:44.962Z,21.10
2022-10-19T20:59:20.104Z,20.31
2022-10-19T21:01:53.414Z,21.15
2022-10-19T21:04:26.523Z,21.64
2022-10-19T21:07:00.302Z,21.76
2022-10-19T21:09:34.512Z,20.06
2022-10-19T21:12:06.272Z,21.60
2022-10-19T21:14:41.734Z,21.04
2022-10-19T21:17:10.854Z,20.92
2022-10-19T21:19:42.627Z,21.38
2022-10-19T21:22:12.844Z,21.37
2022-10-19T21:24:46.532Z,19.96
2022-10-19T21:27:15.998Z,21.72
2022-10-19T21:29:44.632Z,21.61
2022-10-19T21:32:14.462Z,22.15
2022-10-19T21:34:46.557Z,23.04
2022-10-19T21:37:18.601Z,22.95
2022-10-19T21:39:50.322Z,22.94
2022-10-19T21:42:18.929Z,22.28
2022-10-19T21:44:48.026Z,22.93
2022-10-19T21:47:17.160Z,22.93
2022-10-19T21:49:46.326Z,23.42
2022-10-19T21:52:20.830Z,22.70
2022-10-19T21:54:52.512Z,22.79
2022-10-19T21:57:24.503Z,22.94
2022-10-19T21:59:53.503Z,21.23
2022-10-19T22:02:24.291Z,21.23
2022-10-19T22:04:55.999Z,21.97
2022-10-19T22:07:35.449Z,23.69
2022-10-19T22:10:07.835Z,22.88
2022-10-19T22:12:40.675Z,23.27
2022-10-19T22:15:13.097Z,22.71
2022-10-19T22:17:42.331Z,25.28
2022-10-19T22:20:15.946Z,23.82
2022-10-19T22:22:49.174Z,22.68
2022-10-19T22:25:21.502Z,20.98
2022-10-19T22:27:56.229Z,21.44
2022-10-19T22:30:27.897Z,22.06
2022-10-19T22:32:59.960Z,22.67
2022-10-19T22:35:29.049Z,22.13
2022-10-19T22:37:59.708Z,20.99
2022-10-19T22:40:29.745Z,20.62
2022-10-19T22:43:13.687Z,20.01
2022-10-19T22:45:44.214Z,19.75
2022-10-19T22:48:12.799Z,19.69
2022-10-19T22:50:42.296Z,18.72
2022-10-19T22:53:11.023Z,19.10
2022-10-19T22:55:42.618Z,18.79
2022-10-19T23:00:42.574Z,18.58
2022-10-19T23:03:16.340Z,19.01
2022-10-19T23:05:45.028Z,20.47
2022-10-19T23:08:18.925Z,20.37
2022-10-19T23:10:50.212Z,19.89
2022-10-19T23:13:19.104Z,19.25
2022-10-19T23:15:50.993Z,19.37
2022-10-19T23:18:22.666Z,19.93
2022-10-19T23:20:59.282Z,21.11
2022-10-19T23:23:28.132Z,21.91
2022-10-19T23:26:01.402Z,22.26
2022-10-19T23:28:35.266Z,22.55
2022-10-19T23:31:32.176Z,22.95
2022-10-19T23:34:01.239Z,21.76
2022-10-19T23:36:31.221Z,20.75
2022-10-19T23:39:01.309Z,20.02
2022-10-19T23:41:37.564Z,20.30
2022-10-19T23:44:11.059Z,20.39
2022-10-19T23:46:42.518Z,19.19
2022-10-19T23:49:14.479Z,18.52
2022-10-19T23:51:45.914Z,18.60
2022-10-19T23:54:18.597Z,18.57
2022-10-19T23:56:47.702Z,18.38
2022-10-19T23:59:16.279Z,18.35
